Airfield :
LOGIN :

Register | Disclaimer

   EN    FR    IT 

 










Legend :    VFR   Marginal VFR   IFR   Intensive IFR   Very Intensive IFR
Visi :
Ceiling :
>= 8 km
>= 3000ft
5 to 8 km
1000 to 3000 ft
1500m to 5 km
500 to 1000 ft
800 to 1500m
200 to 500 ft
< 800m
< 200 ft
Symbols :   Thunderstorms  Fog  Heavy snow  Heavy precipitations  Wind > 20 kt
SIGMETs :     Misc.  Thunderstorms  Icing  Turbulence  Mountain Waves  Volcanic Ashes






- Airport Elevation : 505 ft
- IATA code : SXB


LFST - Strasbourg

CURRENT METAR :
  • 260130Z AUTO 19003KT CAVOK 16/16 Q1012 TEMPO 1000 BCFG BKN001

EXPIRED METARs :
  • 260100Z AUTO 17003KT 140V200 CAVOK 16/16 Q1012 TEMPO 1000 BCFG BKN001
  • 260030Z AUTO VRB03KT CAVOK 16/16 Q1011 TEMPO 1000 BCFG BKN001
  • 260000Z AUTO 21003KT 160V230 CAVOK 16/15 Q1011 TEMPO 1000 BCFG BKN001
  • 252330Z AUTO VRB03KT CAVOK 17/16 Q1011 TEMPO 1000 BCFG BKN001

TAF TAF LFST
Valid from the 26 at 00:00 until the 27 at 00:00 UTC


252300Z 2600/2624 VRB03KT CAVOK
TEMPO 2600/2607 3000 BR
PROB30
TEMPO 2600/2607 1000 BCFG BKN001
BECMG 2608/2610 20010KT FEW028 SCT050
TEMPO 2610/2621 4000 SHRA SCT030CB BKN050
PROB40
TEMPO 2611/2618 VRB15G25KT TSRA
BECMG 2621/2624 CAVOK



MET'MAP, your aeronautical weather chart ! - Copyright ORBIFLY December 2007 - Disclaimer

ORBIFLY MET'MAP TEAM :

Programming & Development : Alexandra Zaïnal
Concept & original design : Baudouin d'Aumeries
Assistance for programming : Marc-Olivier Méhu
Technical & hardware support : Manuel Goepfert

Contact : metmap@orbifly.com




SOURCES & CREDITS :

   NOAA